createdAt,value
2018-04-15T00:00:11.033Z,13.87
2018-04-15T00:01:11.589Z,13.89
2018-04-15T00:02:12.149Z,13.94
2018-04-15T00:03:12.713Z,13.93
2018-04-15T00:04:13.269Z,13.92
2018-04-15T00:05:13.811Z,13.89
2018-04-15T00:06:14.365Z,13.81
2018-04-15T00:07:14.914Z,13.92
2018-04-15T00:08:15.469Z,13.77
2018-04-15T00:09:16.013Z,13.84
2018-04-15T00:10:16.565Z,13.78
2018-04-15T00:11:17.109Z,13.79
2018-04-15T00:12:17.650Z,13.74
2018-04-15T00:13:18.203Z,13.75
2018-04-15T00:14:18.753Z,13.72
2018-04-15T00:15:19.304Z,13.68
2018-04-15T00:16:19.855Z,13.72
2018-04-15T00:17:20.399Z,13.77
2018-04-15T00:18:20.942Z,13.72
2018-04-15T00:19:21.493Z,13.69
2018-04-15T00:20:22.046Z,13.75
2018-04-15T00:21:22.594Z,13.72
2018-04-15T00:22:23.138Z,13.60
2018-04-15T00:23:23.691Z,13.61
2018-04-15T00:24:24.234Z,13.56
2018-04-15T00:25:24.785Z,13.66
2018-04-15T00:26:25.338Z,13.68
2018-04-15T00:27:25.885Z,13.64
2018-04-15T00:28:26.431Z,13.53
2018-04-15T00:29:26.987Z,13.61
2018-04-15T00:30:27.531Z,13.53
2018-04-15T00:31:28.069Z,13.44
2018-04-15T00:32:28.618Z,13.42
2018-04-15T00:33:29.166Z,13.46
2018-04-15T00:34:29.712Z,13.46
2018-04-15T00:35:30.263Z,13.44
2018-04-15T00:36:30.809Z,13.45
2018-04-15T00:37:31.359Z,13.44
2018-04-15T00:38:31.910Z,13.39
2018-04-15T00:39:32.453Z,13.41
2018-04-15T00:40:33.003Z,13.39
2018-04-15T00:41:33.553Z,13.36
2018-04-15T00:42:34.105Z,13.39
2018-04-15T00:43:34.658Z,13.42
2018-04-15T00:44:35.196Z,13.44
2018-04-15T00:45:35.746Z,13.45
2018-04-15T00:46:36.293Z,13.44
2018-04-15T00:47:36.843Z,13.42
2018-04-15T00:48:37.399Z,13.42
2018-04-15T00:49:37.934Z,13.44
2018-04-15T00:50:38.485Z,13.39
2018-04-15T00:51:39.035Z,13.36
2018-04-15T00:52:39.581Z,13.38
2018-04-15T00:53:40.130Z,13.42
2018-04-15T00:54:40.667Z,13.46
2018-04-15T00:55:41.218Z,13.39
2018-04-15T00:56:41.767Z,13.39
2018-04-15T00:57:42.315Z,13.39
2018-04-15T00:58:42.865Z,13.33
2018-04-15T00:59:43.409Z,13.36
2018-04-15T01:00:43.965Z,13.35
2018-04-15T01:01:44.510Z,13.33
2018-04-15T01:02:45.061Z,13.31
2018-04-15T01:03:45.614Z,13.36
2018-04-15T01:04:46.157Z,13.36
2018-04-15T01:05:46.707Z,13.38
2018-04-15T01:06:47.247Z,13.36
2018-04-15T01:07:47.796Z,13.33
2018-04-15T01:08:48.343Z,13.31
2018-04-15T01:09:48.890Z,13.30
2018-04-15T01:10:49.439Z,13.30
2018-04-15T01:11:49.984Z,13.33
2018-04-15T01:12:50.532Z,13.25
2018-04-15T01:13:51.081Z,13.22
2018-04-15T01:14:51.624Z,13.19
2018-04-15T01:15:52.167Z,13.25
2018-04-15T01:16:52.717Z,13.26
2018-04-15T01:17:53.271Z,13.30
2018-04-15T01:18:53.824Z,13.23
2018-04-15T01:19:54.368Z,13.22
2018-04-15T01:20:54.916Z,13.23
2018-04-15T01:21:55.463Z,13.20
2018-04-15T01:22:56.012Z,13.22
2018-04-15T01:23:56.553Z,13.19
2018-04-15T01:24:57.104Z,13.08
2018-04-15T01:25:57.656Z,13.12
2018-04-15T01:26:58.208Z,13.12
2018-04-15T01:27:58.753Z,13.10
2018-04-15T01:28:59.304Z,13.15
2018-04-15T01:29:59.850Z,13.12
2018-04-15T01:31:00.395Z,13.18
2018-04-15T01:32:00.947Z,13.12
2018-04-15T01:33:01.485Z,13.12
2018-04-15T01:34:02.038Z,13.19
2018-04-15T01:35:02.580Z,13.15
2018-04-15T01:36:03.125Z,13.16
2018-04-15T01:37:03.668Z,13.01
2018-04-15T01:38:04.226Z,13.01
2018-04-15T01:39:04.774Z,13.04
2018-04-15T01:40:05.318Z,13.01
2018-04-15T01:41:05.870Z,13.01
2018-04-15T01:42:06.417Z,13.04
2018-04-15T01:43:06.965Z,13.04
2018-04-15T01:44:07.513Z,13.08
2018-04-15T01:45:08.064Z,13.01
2018-04-15T01:46:08.601Z,12.97
2018-04-15T01:47:09.152Z,12.98
2018-04-15T01:48:09.707Z,12.97
2018-04-15T01:49:10.249Z,12.93
2018-04-15T01:50:10.797Z,12.97
2018-04-15T01:51:11.350Z,12.98
2018-04-15T01:52:11.895Z,12.98
2018-04-15T01:53:12.450Z,13.00
2018-04-15T01:54:12.993Z,13.02
2018-04-15T01:55:13.543Z,13.04
2018-04-15T01:56:14.086Z,13.02
2018-04-15T01:57:14.631Z,13.04
2018-04-15T01:58:15.181Z,13.01
2018-04-15T01:59:15.729Z,13.00
2018-04-15T02:00:16.283Z,13.10
2018-04-15T02:01:16.837Z,13.10
2018-04-15T02:02:17.380Z,13.00
2018-04-15T02:03:17.921Z,13.04
2018-04-15T02:04:18.473Z,13.05
2018-04-15T02:05:19.020Z,13.05
2018-04-15T02:06:19.569Z,13.02
2018-04-15T02:07:20.120Z,13.01
2018-04-15T02:08:20.668Z,13.01
2018-04-15T02:09:21.213Z,13.00
2018-04-15T02:10:21.755Z,12.95
2018-04-15T02:11:22.307Z,13.00
2018-04-15T02:12:22.856Z,12.98
2018-04-15T02:13:23.402Z,13.00
2018-04-15T02:14:23.953Z,12.89
2018-04-15T02:15:24.499Z,12.90
2018-04-15T02:16:25.050Z,13.00
2018-04-15T02:17:25.593Z,12.93
2018-04-15T02:18:26.138Z,12.97
2018-04-15T02:19:26.683Z,13.01
2018-04-15T02:20:27.234Z,12.98
2018-04-15T02:21:27.783Z,12.98
2018-04-15T02:22:28.331Z,13.01
2018-04-15T02:23:28.880Z,12.98
2018-04-15T02:24:29.432Z,12.94
2018-04-15T02:25:29.977Z,12.95
2018-04-15T02:26:30.523Z,12.95
2018-04-15T02:27:31.071Z,12.97
2018-04-15T02:28:31.617Z,12.97
2018-04-15T02:29:32.172Z,12.94
2018-04-15T02:30:32.719Z,12.94
2018-04-15T02:31:33.268Z,13.00
2018-04-15T02:32:33.816Z,12.95
2018-04-15T02:33:34.368Z,12.93
2018-04-15T02:34:34.917Z,12.94
2018-04-15T02:35:35.463Z,12.98
2018-04-15T02:36:36.012Z,12.93
2018-04-15T02:37:36.557Z,12.98
2018-04-15T02:38:37.106Z,12.98
2018-04-15T02:39:37.654Z,12.98
2018-04-15T02:40:38.196Z,12.94
2018-04-15T02:41:38.757Z,12.95
2018-04-15T02:42:39.297Z,12.93
2018-04-15T02:43:39.846Z,13.01
2018-04-15T02:44:40.393Z,12.95
2018-04-15T02:45:40.939Z,12.90
2018-04-15T02:46:41.493Z,12.90
2018-04-15T02:47:42.039Z,12.86
2018-04-15T02:48:42.588Z,12.97
2018-04-15T02:49:43.133Z,12.90
2018-04-15T02:50:43.681Z,12.89
2018-04-15T02:51:44.236Z,12.89
2018-04-15T02:52:44.776Z,12.93
2018-04-15T02:53:45.329Z,12.89
2018-04-15T02:54:45.878Z,12.86
2018-04-15T02:55:46.425Z,12.87
2018-04-15T02:56:46.968Z,12.89
2018-04-15T02:57:47.521Z,12.93
2018-04-15T02:58:48.067Z,12.87
2018-04-15T02:59:48.620Z,12.86
2018-04-15T03:00:49.171Z,12.87
2018-04-15T03:01:49.718Z,12.90
2018-04-15T03:02:50.266Z,12.83
2018-04-15T03:03:50.815Z,12.85
2018-04-15T03:04:51.363Z,12.80
2018-04-15T03:05:51.907Z,12.86
2018-04-15T03:06:52.456Z,12.76
2018-04-15T03:07:53.016Z,12.80
2018-04-15T03:08:53.553Z,12.85
2018-04-15T03:09:54.101Z,12.76
2018-04-15T03:10:54.649Z,12.76
2018-04-15T03:11:55.198Z,12.75
2018-04-15T03:12:55.747Z,12.79
2018-04-15T03:13:56.299Z,12.79
2018-04-15T03:14:56.850Z,12.68
2018-04-15T03:15:57.399Z,12.71
2018-04-15T03:16:57.944Z,12.76
2018-04-15T03:17:58.492Z,12.76
2018-04-15T03:18:59.038Z,12.79
2018-04-15T03:19:59.585Z,12.75
2018-04-15T03:21:00.135Z,12.75
2018-04-15T03:22:00.687Z,12.79
2018-04-15T03:23:01.237Z,12.68
2018-04-15T03:24:01.782Z,12.72
2018-04-15T03:25:02.324Z,12.72
2018-04-15T03:26:02.877Z,12.68
2018-04-15T03:27:03.420Z,12.65
2018-04-15T03:28:03.974Z,12.71
2018-04-15T03:29:04.516Z,12.61
2018-04-15T03:30:05.060Z,12.64
2018-04-15T03:31:05.601Z,12.60
2018-04-15T03:32:06.155Z,12.57
2018-04-15T03:33:06.692Z,12.44
2018-04-15T03:34:07.240Z,12.61
2018-04-15T03:35:07.798Z,12.49
2018-04-15T03:36:08.337Z,12.44
2018-04-15T03:37:08.886Z,12.47
2018-04-15T03:38:09.426Z,12.43
2018-04-15T03:39:09.974Z,12.40
2018-04-15T03:40:10.523Z,12.46
2018-04-15T03:41:11.067Z,12.44
2018-04-15T03:42:11.616Z,12.46
2018-04-15T03:43:12.167Z,12.28
2018-04-15T03:44:12.714Z,12.39
2018-04-15T03:45:13.253Z,12.42
2018-04-15T03:46:13.802Z,12.35
2018-04-15T03:47:14.350Z,12.39
2018-04-15T03:48:14.900Z,12.39
2018-04-15T03:49:15.446Z,12.40
2018-04-15T03:50:15.987Z,12.43
2018-04-15T03:51:16.528Z,12.39
2018-04-15T03:52:17.081Z,12.40
2018-04-15T03:53:17.633Z,12.34
2018-04-15T03:54:18.179Z,12.34
2018-04-15T03:55:18.731Z,12.31
2018-04-15T03:56:19.272Z,12.27
2018-04-15T03:57:19.821Z,12.31
2018-04-15T03:58:20.372Z,12.31
2018-04-15T03:59:20.916Z,12.35
2018-04-15T04:00:21.468Z,12.34
2018-04-15T04:01:22.010Z,12.19
2018-04-15T04:02:22.554Z,12.28
2018-04-15T04:03:23.103Z,12.31
2018-04-15T04:04:23.652Z,12.25
2018-04-15T04:05:24.199Z,12.28
2018-04-15T04:06:24.749Z,12.31
2018-04-15T04:07:25.301Z,12.34
2018-04-15T04:08:25.850Z,12.31
2018-04-15T04:09:26.399Z,12.22
2018-04-15T04:10:26.945Z,12.22
2018-04-15T04:11:27.486Z,12.27
2018-04-15T04:12:28.041Z,12.29
2018-04-15T04:13:28.583Z,12.24
2018-04-15T04:14:29.136Z,12.22
2018-04-15T04:15:29.679Z,12.27
2018-04-15T04:16:30.225Z,12.18
2018-04-15T04:17:30.771Z,12.14
2018-04-15T04:18:31.322Z,12.13
2018-04-15T04:19:31.870Z,12.16
2018-04-15T04:20:32.422Z,12.19
2018-04-15T04:21:32.967Z,12.22
2018-04-15T04:22:33.517Z,12.18
2018-04-15T04:23:34.060Z,12.14
2018-04-15T04:24:34.607Z,12.13
2018-04-15T04:25:35.155Z,12.09
2018-04-15T04:26:35.704Z,12.16
2018-04-15T04:27:36.256Z,12.16
2018-04-15T04:28:36.803Z,12.22
2018-04-15T04:29:37.353Z,12.09
2018-04-15T04:30:37.902Z,12.10
2018-04-15T04:31:38.449Z,12.11
2018-04-15T04:32:38.998Z,12.09
2018-04-15T04:33:39.549Z,12.13
2018-04-15T04:34:40.093Z,12.13
2018-04-15T04:35:40.640Z,12.11
2018-04-15T04:36:41.190Z,12.10
2018-04-15T04:37:41.736Z,12.16
2018-04-15T04:38:42.287Z,12.13
2018-04-15T04:39:42.826Z,12.10
2018-04-15T04:40:43.379Z,12.18
2018-04-15T04:41:43.933Z,12.04
2018-04-15T04:42:44.479Z,12.16
2018-04-15T04:43:45.021Z,12.16
2018-04-15T04:44:45.571Z,12.09
2018-04-15T04:45:46.124Z,12.16
2018-04-15T04:46:46.677Z,12.09
2018-04-15T04:47:47.230Z,12.04
2018-04-15T04:48:47.775Z,12.01
2018-04-15T04:49:48.330Z,12.11
2018-04-15T04:50:48.880Z,12.10
2018-04-15T04:51:49.436Z,12.06
2018-04-15T04:52:49.991Z,12.03
2018-04-15T04:53:50.541Z,12.03
2018-04-15T04:54:51.089Z,12.09
2018-04-15T04:55:51.638Z,12.07
2018-04-15T04:56:52.199Z,12.01
2018-04-15T04:57:52.746Z,12.06
2018-04-15T04:58:53.294Z,12.11
2018-04-15T04:59:53.846Z,12.03
2018-04-15T05:00:54.396Z,12.09
2018-04-15T05:01:54.948Z,12.06
2018-04-15T05:02:55.511Z,12.06
2018-04-15T05:03:56.057Z,12.09
2018-04-15T05:04:56.610Z,12.09
2018-04-15T05:05:57.159Z,12.14
2018-04-15T05:06:57.706Z,12.11
2018-04-15T05:07:58.257Z,12.16
2018-04-15T05:08:58.812Z,12.10
2018-04-15T05:09:59.459Z,12.14
2018-04-15T05:11:00.029Z,12.10
2018-04-15T05:12:00.583Z,12.09
2018-04-15T05:13:01.137Z,12.13
2018-04-15T05:14:01.685Z,12.14
2018-04-15T05:15:02.236Z,12.14
2018-04-15T05:16:02.784Z,12.10
2018-04-15T05:17:03.370Z,12.10
2018-04-15T05:18:03.883Z,12.13
2018-04-15T05:19:04.439Z,12.07
2018-04-15T05:20:04.989Z,12.13
2018-04-15T05:21:05.540Z,12.11
2018-04-15T05:22:06.094Z,12.13
2018-04-15T05:23:06.645Z,12.09
2018-04-15T05:24:07.202Z,12.13
2018-04-15T05:25:07.749Z,12.11
2018-04-15T05:26:08.303Z,12.13
2018-04-15T05:27:08.849Z,12.10
2018-04-15T05:28:09.406Z,12.10
2018-04-15T05:29:09.955Z,12.07
2018-04-15T05:30:10.501Z,12.16
2018-04-15T05:31:11.046Z,12.09
2018-04-15T05:32:11.608Z,12.11
2018-04-15T05:33:12.151Z,12.14
2018-04-15T05:34:12.695Z,12.13
2018-04-15T05:35:13.247Z,12.11
2018-04-15T05:36:13.791Z,12.13
2018-04-15T05:37:14.347Z,12.07
2018-04-15T05:38:14.894Z,12.19
2018-04-15T05:39:15.443Z,12.10
2018-04-15T05:40:15.991Z,12.11
2018-04-15T05:41:16.543Z,12.11
2018-04-15T05:42:17.095Z,12.04
2018-04-15T05:43:17.643Z,12.11
2018-04-15T05:44:18.193Z,12.11
2018-04-15T05:45:18.749Z,12.11
2018-04-15T05:46:19.301Z,12.11
2018-04-15T05:47:19.851Z,12.14
2018-04-15T05:48:20.411Z,12.14
2018-04-15T05:49:20.965Z,12.11
2018-04-15T05:50:21.517Z,12.06
2018-04-15T05:51:22.065Z,12.06
2018-04-15T05:52:22.613Z,12.13
2018-04-15T05:53:23.172Z,12.11
2018-04-15T05:54:23.727Z,12.11
2018-04-15T05:55:24.282Z,12.10
2018-04-15T05:56:24.843Z,12.22
2018-04-15T05:57:25.393Z,12.16
2018-04-15T05:58:25.945Z,12.25
2018-04-15T05:59:26.545Z,12.28
2018-04-15T06:00:27.054Z,12.24
2018-04-15T06:01:27.614Z,12.21
2018-04-15T06:02:28.159Z,12.25
2018-04-15T06:03:28.713Z,12.25
2018-04-15T06:04:29.261Z,12.29
2018-04-15T06:05:29.816Z,12.19
2018-04-15T06:06:30.371Z,12.29
2018-04-15T06:07:30.926Z,12.25
2018-04-15T06:08:31.485Z,12.34
2018-04-15T06:09:32.040Z,12.31
2018-04-15T06:10:32.649Z,12.28
2018-04-15T06:11:33.241Z,12.31
2018-04-15T06:12:33.794Z,12.31
2018-04-15T06:13:34.345Z,12.27
2018-04-15T06:14:34.896Z,12.40
2018-04-15T06:15:35.458Z,12.44
2018-04-15T06:16:36.010Z,12.47
2018-04-15T06:17:36.566Z,12.62
2018-04-15T06:18:37.117Z,12.75
2018-04-15T06:19:37.675Z,12.97
2018-04-15T06:20:38.241Z,13.19
2018-04-15T06:21:38.793Z,13.71
2018-04-15T06:22:39.353Z,14.43
2018-04-15T06:23:39.913Z,14.96
2018-04-15T06:24:40.510Z,15.49
2018-04-15T06:25:41.026Z,15.91
2018-04-15T06:26:41.582Z,16.39
2018-04-15T06:27:42.146Z,16.78
2018-04-15T06:28:42.703Z,17.01
2018-04-15T06:29:43.265Z,17.18
2018-04-15T06:30:43.830Z,17.36
2018-04-15T06:31:44.393Z,17.39
2018-04-15T06:32:44.963Z,17.49
2018-04-15T06:33:45.526Z,17.68
2018-04-15T06:34:46.095Z,17.80
2018-04-15T06:35:46.653Z,17.83
2018-04-15T06:36:47.288Z,18.16
2018-04-15T06:37:47.778Z,18.19
2018-04-15T06:38:48.346Z,18.47
2018-04-15T06:39:48.913Z,18.69
2018-04-15T06:40:49.480Z,18.90
2018-04-15T06:41:50.048Z,19.21
2018-04-15T06:42:50.613Z,19.12
2018-04-15T06:43:51.175Z,19.18
2018-04-15T06:44:51.740Z,19.09
2018-04-15T06:45:52.304Z,19.30
2018-04-15T06:46:52.879Z,19.30
2018-04-15T06:47:53.444Z,19.30
2018-04-15T06:48:54.015Z,19.27
2018-04-15T06:49:54.582Z,19.44
2018-04-15T06:50:55.146Z,19.48
2018-04-15T06:51:55.711Z,19.58
2018-04-15T06:52:56.273Z,19.47
2018-04-15T06:53:56.846Z,19.43
2018-04-15T06:54:57.419Z,19.56
2018-04-15T06:55:57.986Z,19.73
2018-04-15T06:56:58.556Z,19.66
2018-04-15T06:57:59.128Z,19.36
2018-04-15T06:58:59.698Z,19.54
2018-04-15T07:00:00.267Z,19.92
2018-04-15T07:01:00.840Z,20.11
2018-04-15T07:02:01.399Z,20.60
2018-04-15T07:03:01.969Z,20.88
2018-04-15T07:04:02.545Z,21.40
2018-04-15T07:05:03.109Z,21.61
2018-04-15T07:06:03.680Z,21.64
2018-04-15T07:07:04.249Z,21.75
2018-04-15T07:08:04.894Z,21.86
2018-04-15T07:09:05.444Z,21.85
2018-04-15T07:10:06.015Z,21.58
2018-04-15T07:11:06.592Z,20.95
2018-04-15T07:12:07.162Z,21.15
2018-04-15T07:13:07.733Z,20.78
2018-04-15T07:14:08.306Z,20.62
2018-04-15T07:15:08.874Z,20.43
2018-04-15T07:16:09.443Z,20.78
2018-04-15T07:17:10.016Z,20.70
2018-04-15T07:18:10.580Z,20.88
2018-04-15T07:19:11.153Z,21.14
2018-04-15T07:20:11.717Z,21.40
2018-04-15T07:21:12.280Z,21.49
2018-04-15T07:22:12.846Z,21.82
2018-04-15T07:23:13.411Z,21.77
2018-04-15T07:24:13.979Z,21.73
2018-04-15T07:25:14.546Z,21.64
2018-04-15T07:26:15.121Z,21.67
2018-04-15T07:27:15.682Z,21.82
2018-04-15T07:28:16.259Z,21.91
2018-04-15T07:29:16.830Z,21.91
2018-04-15T07:30:17.397Z,21.91
2018-04-15T07:31:17.969Z,21.89
2018-04-15T07:32:18.538Z,22.01
2018-04-15T07:33:19.108Z,21.92
2018-04-15T07:34:19.684Z,22.14
2018-04-15T07:35:20.248Z,22.35
2018-04-15T07:36:20.830Z,21.91
2018-04-15T07:37:21.398Z,21.45
2018-04-15T07:38:21.964Z,21.91
2018-04-15T07:39:22.533Z,22.20
2018-04-15T07:40:23.106Z,22.28
2018-04-15T07:41:23.677Z,22.21
2018-04-15T07:42:24.248Z,22.32
2018-04-15T07:43:24.822Z,22.28
2018-04-15T07:44:25.415Z,22.10
2018-04-15T07:45:25.963Z,21.76
2018-04-15T07:46:26.532Z,21.40
2018-04-15T07:47:27.106Z,21.64
2018-04-15T07:48:27.673Z,21.80
2018-04-15T07:49:28.245Z,21.83
2018-04-15T07:50:28.832Z,21.72
2018-04-15T07:51:29.384Z,21.64
2018-04-15T07:52:29.956Z,21.79
2018-04-15T07:53:30.525Z,21.35
2018-04-15T07:54:31.094Z,21.45
2018-04-15T07:55:31.667Z,21.70
2018-04-15T07:56:32.238Z,21.77
2018-04-15T07:57:32.808Z,21.75
2018-04-15T07:58:33.381Z,21.86
2018-04-15T07:59:33.949Z,22.07
2018-04-15T08:00:34.528Z,22.01
2018-04-15T08:01:35.095Z,22.07
2018-04-15T08:02:35.661Z,22.29
2018-04-15T08:03:36.235Z,22.55
2018-04-15T08:04:36.798Z,22.47
2018-04-15T08:05:37.374Z,22.39
2018-04-15T08:06:37.941Z,22.01
2018-04-15T08:07:38.552Z,21.99
2018-04-15T08:08:39.078Z,22.28
2018-04-15T08:09:39.645Z,22.35
2018-04-15T08:10:40.212Z,22.68
2018-04-15T08:11:40.784Z,22.94
2018-04-15T08:12:41.358Z,23.05
2018-04-15T08:13:41.931Z,22.58
2018-04-15T08:14:42.502Z,22.46
2018-04-15T08:15:43.069Z,22.54
2018-04-15T08:16:43.638Z,22.57
2018-04-15T08:17:44.208Z,22.58
2018-04-15T08:18:44.785Z,22.18
2018-04-15T08:19:45.355Z,22.36
2018-04-15T08:20:45.921Z,22.68
2018-04-15T08:21:46.488Z,22.93
2018-04-15T08:22:47.066Z,22.66
2018-04-15T08:23:47.633Z,22.18
2018-04-15T08:24:48.200Z,21.75
2018-04-15T08:25:48.769Z,21.62
2018-04-15T08:26:49.338Z,21.89
2018-04-15T08:27:49.906Z,22.28
2018-04-15T08:28:50.489Z,22.63
2018-04-15T08:29:51.045Z,23.23
2018-04-15T08:30:51.608Z,23.64
2018-04-15T08:31:52.183Z,23.86
2018-04-15T08:32:52.751Z,23.96
2018-04-15T08:33:53.325Z,24.43
2018-04-15T08:34:53.897Z,25.01
2018-04-15T08:35:54.452Z,24.74
2018-04-15T08:36:55.022Z,24.58
2018-04-15T08:37:55.593Z,24.51
2018-04-15T08:38:56.158Z,24.88
2018-04-15T08:39:56.721Z,24.77
2018-04-15T08:40:57.285Z,24.94
2018-04-15T08:41:57.857Z,24.60
2018-04-15T08:42:58.435Z,24.21
2018-04-15T08:43:59.019Z,24.31
2018-04-15T08:44:59.578Z,24.76
2018-04-15T08:46:00.141Z,24.69
2018-04-15T08:47:00.712Z,24.86
2018-04-15T08:48:01.283Z,25.14
2018-04-15T08:49:01.852Z,25.33
2018-04-15T08:50:02.426Z,24.95
2018-04-15T08:51:02.998Z,24.68
2018-04-15T08:52:03.568Z,24.73
2018-04-15T08:53:04.137Z,24.94
2018-04-15T08:54:04.711Z,24.98
2018-04-15T08:55:05.280Z,25.01
2018-04-15T08:56:05.850Z,25.31
2018-04-15T08:57:06.423Z,25.80
2018-04-15T08:58:07.000Z,26.28
2018-04-15T08:59:07.561Z,26.63
2018-04-15T09:00:08.132Z,26.51
2018-04-15T09:01:08.704Z,26.28
2018-04-15T09:02:09.271Z,25.91
2018-04-15T09:03:09.840Z,25.16
2018-04-15T09:04:10.409Z,24.83
2018-04-15T09:05:10.975Z,24.38
2018-04-15T09:06:11.539Z,23.81
2018-04-15T09:07:12.102Z,23.53
2018-04-15T09:08:12.671Z,23.37
2018-04-15T09:09:13.240Z,23.37
2018-04-15T09:10:13.932Z,23.56
2018-04-15T09:11:14.452Z,24.03
2018-04-15T09:12:15.025Z,24.36
2018-04-15T09:13:15.590Z,24.68
2018-04-15T09:14:16.157Z,24.84
2018-04-15T09:15:16.727Z,25.21
2018-04-15T09:16:17.298Z,24.68
2018-04-15T09:17:17.874Z,24.14
2018-04-15T09:18:18.439Z,24.09
2018-04-15T09:19:19.009Z,23.99
2018-04-15T09:20:19.579Z,23.87
2018-04-15T09:21:20.151Z,24.01
2018-04-15T09:22:20.729Z,24.20
2018-04-15T09:23:21.294Z,24.16
2018-04-15T09:24:21.870Z,24.43
2018-04-15T09:25:22.436Z,24.95
2018-04-15T09:26:23.049Z,25.01
2018-04-15T09:27:23.574Z,25.43
2018-04-15T09:28:24.141Z,25.47
2018-04-15T09:29:24.714Z,25.73
2018-04-15T09:30:25.280Z,25.80
2018-04-15T09:31:25.855Z,25.58
2018-04-15T09:32:26.441Z,25.73
2018-04-15T09:33:27.000Z,25.91
2018-04-15T09:34:27.570Z,25.80
2018-04-15T09:35:28.140Z,25.76
2018-04-15T09:36:28.712Z,25.90
2018-04-15T09:37:29.274Z,26.12
2018-04-15T09:38:29.852Z,25.95
2018-04-15T09:39:30.422Z,25.91
2018-04-15T09:40:30.996Z,25.90
2018-04-15T09:41:31.566Z,25.61
2018-04-15T09:42:32.136Z,25.35
2018-04-15T09:43:32.706Z,25.18
2018-04-15T09:44:33.275Z,25.46
2018-04-15T09:45:33.842Z,25.14
2018-04-15T09:46:34.411Z,24.74
2018-04-15T09:47:34.983Z,24.94
2018-04-15T09:48:35.546Z,25.17
2018-04-15T09:49:36.117Z,24.92
2018-04-15T09:50:36.685Z,24.84
2018-04-15T09:51:37.257Z,24.56
2018-04-15T09:52:37.838Z,24.46
2018-04-15T09:53:38.399Z,25.01
2018-04-15T09:54:38.974Z,25.13
2018-04-15T09:55:39.540Z,25.53
2018-04-15T09:56:40.111Z,25.50
2018-04-15T09:57:40.681Z,25.02
2018-04-15T09:58:41.252Z,25.21
2018-04-15T09:59:41.825Z,25.47
2018-04-15T10:00:42.447Z,25.75
2018-04-15T10:01:42.964Z,25.63
2018-04-15T10:19:04.488Z,24.61
2018-04-15T10:20:05.059Z,25.01
2018-04-15T10:21:05.639Z,25.61
2018-04-15T10:22:06.198Z,25.66
2018-04-15T10:23:06.774Z,25.72
2018-04-15T10:24:07.443Z,25.80
2018-04-15T10:25:07.914Z,26.00
2018-04-15T10:26:08.489Z,26.24
2018-04-15T10:27:09.057Z,25.95
2018-04-15T10:28:09.630Z,26.05
2018-04-15T10:29:10.202Z,26.29
2018-04-15T10:30:10.775Z,26.26
2018-04-15T10:31:11.405Z,25.95
2018-04-15T10:32:11.948Z,25.33
2018-04-15T10:33:12.520Z,25.13
2018-04-15T10:34:13.088Z,24.99
2018-04-15T10:35:13.665Z,25.26
2018-04-15T10:36:14.231Z,25.62
2018-04-15T10:37:14.801Z,25.76
2018-04-15T10:38:15.369Z,25.93
2018-04-15T10:39:15.941Z,26.21
2018-04-15T10:40:16.513Z,26.59
2018-04-15T10:41:17.097Z,26.74
2018-04-15T10:42:17.671Z,26.77
2018-04-15T10:43:18.242Z,26.61
2018-04-15T10:44:18.809Z,26.54
2018-04-15T10:45:19.375Z,26.61
2018-04-15T10:46:19.951Z,26.68
2018-04-15T10:47:20.524Z,26.76
2018-04-15T10:48:21.097Z,26.95
2018-04-15T10:49:21.673Z,27.00
2018-04-15T10:50:22.241Z,26.91
2018-04-15T10:51:22.813Z,26.98
2018-04-15T10:52:23.383Z,27.24
2018-04-15T10:53:23.955Z,27.48
2018-04-15T10:54:24.521Z,27.14
2018-04-15T10:55:25.093Z,27.18
2018-04-15T10:56:25.665Z,27.47
2018-04-15T10:57:26.238Z,27.67
2018-04-15T10:58:26.811Z,27.80
2018-04-15T10:59:27.377Z,27.99
2018-04-15T11:00:27.952Z,27.83
2018-04-15T11:01:28.521Z,27.54
2018-04-15T11:02:29.094Z,27.06
2018-04-15T11:03:29.670Z,26.74
2018-04-15T11:04:30.246Z,26.71
2018-04-15T11:23:07.233Z,28.47
2018-04-15T11:24:07.805Z,28.66
2018-04-15T11:25:08.373Z,29.05
2018-04-15T11:26:08.956Z,29.23
2018-04-15T11:27:09.534Z,29.17
2018-04-15T11:28:10.104Z,29.03
2018-04-15T11:29:10.676Z,29.19
2018-04-15T11:30:11.245Z,29.25
2018-04-15T11:31:11.811Z,29.38
2018-04-15T11:32:12.380Z,29.00
2018-04-15T11:33:12.952Z,28.89
2018-04-15T11:34:13.556Z,29.07
2018-04-15T11:35:14.092Z,29.23
2018-04-15T11:36:14.657Z,29.56
2018-04-15T11:37:15.228Z,29.56
2018-04-15T11:38:15.794Z,29.48
2018-04-15T11:39:16.367Z,29.39
2018-04-15T11:40:16.937Z,29.59
2018-04-15T11:41:17.509Z,29.71
2018-04-15T11:42:18.086Z,29.64
2018-04-15T11:43:18.652Z,29.97
2018-04-15T11:44:19.229Z,29.89
2018-04-15T11:45:19.796Z,29.20
2018-04-15T11:46:20.364Z,28.47
2018-04-15T11:47:20.934Z,28.13
2018-04-15T11:48:21.509Z,28.00
2018-04-15T11:49:22.078Z,27.80
2018-04-15T11:50:22.654Z,27.42
2018-04-15T11:51:23.229Z,26.92
2018-04-15T11:52:23.794Z,26.61
2018-04-15T11:53:24.364Z,26.44
2018-04-15T11:54:24.931Z,26.19
2018-04-15T11:55:25.497Z,26.05
2018-04-15T11:56:26.064Z,25.87
2018-04-15T11:57:26.625Z,25.87
2018-04-15T11:58:27.190Z,25.72
2018-04-15T11:59:27.754Z,25.44
2018-04-15T12:00:28.325Z,25.29
2018-04-15T12:01:28.890Z,25.31
2018-04-15T12:16:19.473Z,26.47
2018-04-15T12:17:20.033Z,26.69
2018-04-15T12:18:20.598Z,26.83
2018-04-15T12:19:21.182Z,26.84
2018-04-15T12:20:21.755Z,27.20
2018-04-15T12:21:22.322Z,27.47
2018-04-15T12:22:22.889Z,27.99
2018-04-15T12:23:23.469Z,28.07
2018-04-15T12:24:24.043Z,28.32
2018-04-15T12:25:24.617Z,28.05
2018-04-15T12:26:25.189Z,27.95
2018-04-15T12:27:25.758Z,28.32
2018-04-15T12:28:26.330Z,28.88
2018-04-15T12:29:26.897Z,29.15
2018-04-15T12:30:27.466Z,29.37
2018-04-15T12:31:28.034Z,29.19
2018-04-15T12:32:28.602Z,29.39
2018-04-15T12:33:29.172Z,29.41
2018-04-15T12:34:29.748Z,29.26
2018-04-15T12:35:30.321Z,29.42
2018-04-15T12:36:30.894Z,29.56
2018-04-15T12:37:31.468Z,29.78
2018-04-15T12:38:32.037Z,29.94
2018-04-15T12:39:32.606Z,29.79
2018-04-15T12:40:33.170Z,29.30
2018-04-15T12:41:33.738Z,28.50
2018-04-15T12:42:34.301Z,28.18
2018-04-15T12:43:34.903Z,27.77
2018-04-15T12:44:35.438Z,27.63
2018-04-15T12:45:36.009Z,27.45
2018-04-15T12:46:36.578Z,27.03
2018-04-15T12:47:37.153Z,26.77
2018-04-15T12:48:37.717Z,26.99
2018-04-15T12:49:38.287Z,26.95
2018-04-15T12:50:38.864Z,26.99
2018-04-15T12:51:39.435Z,26.73
2018-04-15T12:52:40.000Z,26.32
2018-04-15T12:53:40.602Z,26.21
2018-04-15T12:54:41.130Z,26.28
2018-04-15T12:55:41.698Z,26.25
2018-04-15T13:10:32.296Z,29.37
2018-04-15T13:11:32.870Z,29.67
2018-04-15T13:12:33.439Z,29.59
2018-04-15T13:13:34.008Z,29.79
2018-04-15T13:14:34.582Z,29.84
2018-04-15T13:15:35.149Z,30.16
2018-04-15T13:16:35.781Z,30.35
2018-04-15T13:17:36.310Z,30.19
2018-04-15T13:18:36.879Z,29.54
2018-04-15T13:19:37.443Z,29.26
2018-04-15T13:20:38.008Z,29.17
2018-04-15T13:21:38.578Z,28.75
2018-04-15T13:22:39.145Z,28.40
2018-04-15T13:23:39.712Z,28.23
2018-04-15T13:24:40.278Z,28.13
2018-04-15T13:25:40.843Z,27.77
2018-04-15T13:26:41.409Z,27.40
2018-04-15T13:27:41.974Z,27.37
2018-04-15T13:28:42.542Z,27.00
2018-04-15T13:29:43.099Z,26.66
2018-04-15T13:30:43.660Z,26.43
2018-04-15T13:31:44.229Z,26.28
2018-04-15T13:32:44.796Z,26.31
2018-04-15T13:33:45.369Z,25.80
2018-04-15T13:34:45.938Z,25.62
2018-04-15T13:35:46.506Z,25.47
2018-04-15T13:36:47.077Z,25.26
2018-04-15T13:37:47.639Z,25.11
2018-04-15T13:38:48.205Z,25.10
2018-04-15T13:39:48.774Z,25.06
2018-04-15T13:40:49.336Z,24.81
2018-04-15T13:41:49.897Z,24.84
2018-04-15T13:42:50.468Z,24.61
2018-04-15T13:43:51.032Z,24.31
2018-04-15T13:44:51.599Z,24.14
2018-04-15T13:45:52.157Z,24.14
2018-04-15T13:46:52.755Z,24.23
2018-04-15T13:47:53.279Z,24.13
2018-04-15T13:48:53.845Z,24.09
2018-04-15T14:06:15.262Z,23.32
2018-04-15T14:07:15.822Z,23.41
2018-04-15T14:08:16.386Z,23.31
2018-04-15T14:09:16.950Z,23.31
2018-04-15T14:10:17.516Z,23.18
2018-04-15T14:11:18.085Z,23.12
2018-04-15T14:12:18.642Z,23.16
2018-04-15T14:13:19.209Z,23.13
2018-04-15T14:14:19.772Z,23.16
2018-04-15T14:15:20.334Z,23.00
2018-04-15T14:16:20.896Z,22.78
2018-04-15T14:17:21.463Z,22.84